createdAt,value
2022-12-31T00:01:03.545Z,98862.16
2022-12-31T00:03:31.081Z,98867.88
2022-12-31T00:05:58.662Z,98868.56
2022-12-31T00:08:26.199Z,98865.88
2022-12-31T00:10:55.445Z,98875.25
2022-12-31T00:13:22.901Z,98878.66
2022-12-31T00:15:50.373Z,98887.50
2022-12-31T00:18:17.879Z,98891.66
2022-12-31T00:20:45.331Z,98893.09
2022-12-31T00:23:12.881Z,98895.72
2022-12-31T00:25:40.309Z,98909.06
2022-12-31T00:28:09.249Z,98900.03
2022-12-31T00:30:37.460Z,98897.38
2022-12-31T00:33:04.985Z,98903.22
2022-12-31T00:35:34.580Z,98899.19
2022-12-31T00:38:02.021Z,98893.66
2022-12-31T00:40:29.696Z,98889.59
2022-12-31T00:42:57.163Z,98889.63
2022-12-31T00:45:26.067Z,98878.81
2022-12-31T00:47:53.575Z,98879.16
2022-12-31T00:50:21.125Z,98864.66
2022-12-31T00:52:48.629Z,98874.09
2022-12-31T00:55:16.375Z,98857.09
2022-12-31T00:57:43.932Z,98868.28
2022-12-31T01:00:12.838Z,98874.72
2022-12-31T01:02:41.780Z,98873.88
2022-12-31T01:05:09.776Z,98873.06
2022-12-31T01:07:38.487Z,98871.09
2022-12-31T01:10:07.044Z,98860.31
2022-12-31T01:12:34.700Z,98846.81
2022-12-31T01:15:02.219Z,98867.28
2022-12-31T01:17:29.874Z,98866.41
2022-12-31T01:19:58.672Z,98866.63
2022-12-31T01:22:26.220Z,98870.38
2022-12-31T01:24:53.757Z,98865.47
2022-12-31T01:27:21.445Z,98848.91
2022-12-31T01:29:49.028Z,98865.66
2022-12-31T01:32:16.615Z,98872.59
2022-12-31T01:34:44.159Z,98852.44
2022-12-31T01:37:12.998Z,98844.56
2022-12-31T01:39:40.508Z,98868.72
2022-12-31T01:42:11.469Z,98876.19
2022-12-31T01:44:49.942Z,98865.78
2022-12-31T01:47:20.826Z,98855.00
2022-12-31T01:49:50.813Z,98859.25
2022-12-31T01:52:23.469Z,98871.81
2022-12-31T01:54:54.537Z,98853.78
2022-12-31T01:57:22.850Z,98850.28
2022-12-31T01:59:50.928Z,98855.78
2022-12-31T02:02:18.798Z,98842.28
2022-12-31T02:04:46.761Z,98849.31
2022-12-31T02:07:14.286Z,98837.53
2022-12-31T02:09:43.703Z,98819.50
2022-12-31T02:12:11.581Z,98844.06
2022-12-31T02:14:41.239Z,98862.50
2022-12-31T02:17:12.590Z,98829.13
2022-12-31T02:20:12.062Z,98831.47
2022-12-31T02:22:52.965Z,98830.13
2022-12-31T02:25:34.774Z,98817.09
2022-12-31T02:28:14.407Z,98824.09
2022-12-31T02:30:44.399Z,98801.09
2022-12-31T02:33:15.080Z,98801.75
2022-12-31T02:35:47.853Z,98797.53
2022-12-31T02:38:17.396Z,98793.84
2022-12-31T02:40:45.501Z,98792.84
2022-12-31T02:43:12.981Z,98793.72
2022-12-31T02:45:44.117Z,98783.91
2022-12-31T02:48:23.652Z,98795.69
2022-12-31T02:50:59.409Z,98786.81
2022-12-31T02:53:40.319Z,98783.25
2022-12-31T02:56:11.394Z,98776.31
2022-12-31T02:59:01.322Z,98774.44
2022-12-31T03:01:51.865Z,98776.47
2022-12-31T03:04:36.053Z,98774.53
2022-12-31T03:07:05.075Z,98761.00
2022-12-31T03:09:32.892Z,98767.31
2022-12-31T03:12:18.100Z,98765.66
2022-12-31T03:14:45.734Z,98755.88
2022-12-31T03:17:14.605Z,98755.81
2022-12-31T03:19:59.707Z,98758.06
2022-12-31T03:22:30.290Z,98738.84
2022-12-31T03:25:17.426Z,98741.47
2022-12-31T03:27:46.417Z,98738.34
2022-12-31T03:30:15.445Z,98758.69
2022-12-31T03:32:45.213Z,98742.16
2022-12-31T03:35:14.288Z,98757.22
2022-12-31T03:37:42.588Z,98754.56
2022-12-31T03:40:11.755Z,98749.75
2022-12-31T03:42:39.272Z,98755.03
2022-12-31T03:45:07.952Z,98748.44
2022-12-31T03:47:35.622Z,98749.38
2022-12-31T03:50:05.050Z,98745.66
2022-12-31T03:52:32.511Z,98754.41
2022-12-31T03:55:01.520Z,98742.47
2022-12-31T03:57:29.407Z,98742.41
2022-12-31T03:59:56.840Z,98752.63
2022-12-31T04:02:28.872Z,98738.66
2022-12-31T04:04:56.913Z,98732.81
2022-12-31T04:07:25.822Z,98746.53
2022-12-31T04:09:53.266Z,98736.09
2022-12-31T04:12:20.783Z,98738.13
2022-12-31T04:14:48.270Z,98733.81
2022-12-31T04:17:15.773Z,98730.94
2022-12-31T04:19:43.355Z,98735.47
2022-12-31T04:22:11.872Z,98758.44
2022-12-31T04:24:40.685Z,98813.09
2022-12-31T04:27:08.289Z,98822.50
2022-12-31T04:29:35.797Z,98809.09
2022-12-31T04:32:04.546Z,98813.47
2022-12-31T04:34:32.097Z,98829.38
2022-12-31T04:36:59.611Z,98835.50
2022-12-31T04:39:27.490Z,98834.28
2022-12-31T04:41:56.278Z,98839.84
2022-12-31T04:44:23.776Z,98843.84
2022-12-31T04:46:52.311Z,98838.03
2022-12-31T04:49:20.041Z,98844.53
2022-12-31T04:51:48.074Z,98842.81
2022-12-31T04:54:15.584Z,98849.66
2022-12-31T04:56:43.049Z,98851.84
2022-12-31T04:59:12.173Z,98834.72
2022-12-31T05:01:40.310Z,98848.66
2022-12-31T05:04:07.905Z,98850.06
2022-12-31T05:06:35.451Z,98824.88
2022-12-31T05:09:02.951Z,98845.16
2022-12-31T05:11:30.433Z,98833.09
2022-12-31T05:13:57.910Z,98847.53
2022-12-31T05:16:26.756Z,98843.94
2022-12-31T05:18:55.565Z,98838.13
2022-12-31T05:21:23.190Z,98843.84
2022-12-31T05:23:50.725Z,98835.00
2022-12-31T05:26:18.699Z,98823.28
2022-12-31T05:28:46.209Z,98828.66
2022-12-31T05:31:13.824Z,98834.66
2022-12-31T05:33:42.707Z,98828.69
2022-12-31T05:36:10.292Z,98826.03
2022-12-31T05:38:38.130Z,98832.44
2022-12-31T05:41:08.173Z,98828.91
2022-12-31T05:43:35.918Z,98823.56
2022-12-31T05:46:04.793Z,98825.97
2022-12-31T05:48:32.540Z,98829.91
2022-12-31T05:51:01.322Z,98823.25
2022-12-31T05:53:28.798Z,98843.84
2022-12-31T05:55:56.284Z,98831.03
2022-12-31T05:58:23.743Z,98837.56
2022-12-31T06:00:52.546Z,98825.47
2022-12-31T06:03:20.112Z,98829.84
2022-12-31T06:05:47.671Z,98821.84
2022-12-31T06:08:16.502Z,98810.00
2022-12-31T06:10:43.982Z,98815.47
2022-12-31T06:13:11.465Z,98810.72
2022-12-31T06:15:40.333Z,98810.50
2022-12-31T06:18:08.200Z,98820.56
2022-12-31T06:20:37.344Z,98798.47
2022-12-31T06:23:05.400Z,98793.88
2022-12-31T06:25:36.878Z,98798.31
2022-12-31T06:28:04.649Z,98811.63
2022-12-31T06:30:32.358Z,98800.28
2022-12-31T06:32:59.828Z,98787.88
2022-12-31T06:35:27.294Z,98786.75
2022-12-31T06:37:54.785Z,98809.97
2022-12-31T06:40:22.268Z,98819.06
2022-12-31T06:42:59.548Z,98822.44
2022-12-31T06:45:28.143Z,98815.38
2022-12-31T06:47:55.639Z,98823.13
2022-12-31T06:50:23.101Z,98812.19
2022-12-31T06:52:50.561Z,98817.41
2022-12-31T06:55:18.653Z,98818.28
2022-12-31T06:57:46.642Z,98828.72
2022-12-31T07:00:16.934Z,98836.44
2022-12-31T07:03:02.579Z,98839.56
2022-12-31T07:05:40.338Z,98825.38
2022-12-31T07:08:31.095Z,98869.66
2022-12-31T07:11:03.940Z,98859.06
2022-12-31T07:13:50.170Z,98857.31
2022-12-31T07:16:35.628Z,98863.69
2022-12-31T07:19:12.079Z,98857.88
2022-12-31T07:21:41.568Z,98863.41
2022-12-31T07:24:10.859Z,98861.22
2022-12-31T07:26:57.211Z,98877.72
2022-12-31T07:29:31.370Z,98893.72
2022-12-31T07:32:05.589Z,98883.63
2022-12-31T07:34:38.816Z,98894.81
2022-12-31T07:37:09.194Z,98903.19
2022-12-31T07:39:41.820Z,98890.16
2022-12-31T07:42:15.197Z,98883.19
2022-12-31T07:44:52.577Z,98891.56
2022-12-31T07:47:24.124Z,98882.50
2022-12-31T07:49:52.409Z,98892.84
2022-12-31T07:52:21.179Z,98899.28
2022-12-31T07:54:48.670Z,98899.91
2022-12-31T07:57:18.484Z,98939.72
2022-12-31T07:59:53.774Z,98918.88
2022-12-31T08:02:35.033Z,98914.84
2022-12-31T08:05:07.660Z,98915.19
2022-12-31T08:07:38.295Z,98912.97
2022-12-31T08:10:17.281Z,98922.66
2022-12-31T08:12:46.712Z,98931.97
2022-12-31T08:15:15.494Z,98910.63
2022-12-31T08:17:44.920Z,98928.00
2022-12-31T08:20:15.627Z,98936.97
2022-12-31T08:23:08.211Z,98934.88
2022-12-31T08:25:39.439Z,98935.22
2022-12-31T08:28:13.111Z,98939.09
2022-12-31T08:30:45.665Z,98945.38
2022-12-31T08:33:20.480Z,98945.84
2022-12-31T08:35:59.160Z,98928.97
2022-12-31T08:38:31.800Z,98939.88
2022-12-31T08:41:02.753Z,98936.25
2022-12-31T08:43:50.287Z,98942.56
2022-12-31T08:46:22.057Z,98944.41
2022-12-31T08:51:02.416Z,98937.16
2022-12-31T08:53:30.594Z,98932.75
2022-12-31T08:56:03.829Z,98940.75
2022-12-31T08:58:40.062Z,98946.44
2022-12-31T09:01:08.295Z,98943.53
2022-12-31T09:03:51.521Z,98948.34
2022-12-31T09:06:26.445Z,98950.56
2022-12-31T09:08:58.582Z,98946.13
2022-12-31T09:11:30.880Z,98963.16
2022-12-31T09:14:09.423Z,98967.44
2022-12-31T09:16:46.449Z,98941.53
2022-12-31T09:19:13.997Z,98968.88
2022-12-31T09:21:44.268Z,98976.31
2022-12-31T09:24:13.434Z,98972.31
2022-12-31T09:26:47.958Z,98973.03
2022-12-31T09:29:24.574Z,98972.22
2022-12-31T09:31:56.533Z,98991.72
2022-12-31T09:34:29.733Z,98991.72
2022-12-31T09:37:02.011Z,98980.28
2022-12-31T09:39:34.483Z,98978.66
2022-12-31T09:42:19.608Z,98993.81
2022-12-31T09:44:58.407Z,98981.00
2022-12-31T09:47:50.352Z,98974.88
2022-12-31T09:50:38.387Z,98994.50
2022-12-31T09:53:27.417Z,98986.66
2022-12-31T09:55:57.825Z,98992.88
2022-12-31T09:58:39.178Z,99004.41
2022-12-31T10:01:19.464Z,99005.16
2022-12-31T10:04:06.062Z,99008.06
2022-12-31T10:06:38.989Z,99004.53
2022-12-31T10:09:18.422Z,99026.50
2022-12-31T10:12:02.044Z,99013.88
2022-12-31T10:14:47.223Z,99024.41
2022-12-31T10:17:24.225Z,99023.00
2022-12-31T10:20:10.014Z,99031.06
2022-12-31T10:23:00.632Z,99030.38
2022-12-31T10:25:37.905Z,99033.31
2022-12-31T10:28:07.909Z,99019.13
2022-12-31T10:30:36.626Z,99045.03
2022-12-31T10:33:09.317Z,99048.50
2022-12-31T10:35:42.011Z,99017.78
2022-12-31T10:38:23.575Z,99055.28
2022-12-31T10:41:25.608Z,99050.97
2022-12-31T10:44:46.962Z,99070.19
2022-12-31T10:48:00.347Z,99074.88
2022-12-31T10:51:15.231Z,99074.66
2022-12-31T10:53:56.008Z,99088.13
2022-12-31T10:56:48.711Z,99099.09
2022-12-31T10:59:30.531Z,99085.41
2022-12-31T11:02:07.066Z,99088.75
2022-12-31T11:05:24.963Z,99104.06
2022-12-31T11:07:57.985Z,99100.88
2022-12-31T11:10:49.759Z,99110.59
2022-12-31T11:13:47.797Z,99102.56
2022-12-31T11:16:30.289Z,99107.00
2022-12-31T11:19:02.880Z,99088.19
2022-12-31T11:26:03.014Z,99096.44
2022-12-31T11:28:51.632Z,99108.00
2022-12-31T11:31:33.963Z,99092.34
2022-12-31T11:34:13.359Z,99084.59
2022-12-31T11:36:46.109Z,99088.38
2022-12-31T11:39:36.200Z,99088.63
2022-12-31T11:42:13.613Z,99085.50
2022-12-31T11:44:48.137Z,99075.84
2022-12-31T11:47:25.268Z,99093.56
2022-12-31T11:50:01.500Z,99088.69
2022-12-31T11:52:44.574Z,99082.84
2022-12-31T11:55:29.367Z,99062.69
2022-12-31T11:58:00.435Z,99060.03
2022-12-31T12:00:31.112Z,99060.63
2022-12-31T12:03:00.643Z,99046.59
2022-12-31T12:05:29.184Z,99047.50
2022-12-31T12:07:57.226Z,99074.84
2022-12-31T12:10:33.525Z,99063.69
2022-12-31T12:13:12.098Z,99082.56
2022-12-31T12:15:43.731Z,99064.59
2022-12-31T12:18:19.426Z,99078.03
2022-12-31T12:20:47.880Z,99080.00
2022-12-31T12:23:18.149Z,99078.28
2022-12-31T12:25:46.555Z,99065.28
2022-12-31T12:28:24.608Z,99062.50
2022-12-31T12:31:03.483Z,99082.38
2022-12-31T12:33:41.489Z,99078.22
2022-12-31T12:36:10.818Z,99093.53
2022-12-31T12:38:38.743Z,99089.41
2022-12-31T12:41:08.706Z,99121.31
2022-12-31T12:43:37.405Z,99097.59
2022-12-31T12:46:17.281Z,99113.47
2022-12-31T12:48:47.758Z,99111.66
2022-12-31T12:51:24.531Z,99114.69
2022-12-31T12:53:58.752Z,99104.09
2022-12-31T12:56:33.099Z,99107.22
2022-12-31T12:59:17.271Z,99098.41
2022-12-31T13:01:50.217Z,99092.56
2022-12-31T13:04:38.975Z,99099.16
2022-12-31T13:07:20.038Z,99093.97
2022-12-31T13:09:58.013Z,99096.75
2022-12-31T13:12:48.908Z,99092.53
2022-12-31T13:15:23.231Z,99072.78
2022-12-31T13:18:01.626Z,99117.66
2022-12-31T13:20:35.535Z,99103.03
2022-12-31T13:23:08.031Z,99105.56
2022-12-31T13:25:40.427Z,99105.09
2022-12-31T13:28:12.255Z,99098.41
2022-12-31T13:30:41.678Z,99103.94
2022-12-31T13:33:15.586Z,99096.75
2022-12-31T13:35:46.517Z,99091.84
2022-12-31T13:38:19.423Z,99110.75
2022-12-31T13:40:50.771Z,99093.13
2022-12-31T13:43:23.572Z,99113.03
2022-12-31T13:46:00.344Z,99113.84
2022-12-31T13:48:34.061Z,99133.00
2022-12-31T13:51:04.467Z,99142.25
2022-12-31T13:53:35.871Z,99121.72
2022-12-31T13:56:06.602Z,99149.16
2022-12-31T13:58:36.864Z,99129.66
2022-12-31T14:01:11.991Z,99137.69
2022-12-31T14:03:47.142Z,99145.56
2022-12-31T14:06:20.022Z,99155.09
2022-12-31T14:08:47.468Z,99149.13
2022-12-31T14:11:22.046Z,99126.94
2022-12-31T14:13:59.807Z,99155.75
2022-12-31T14:16:34.779Z,99157.34
2022-12-31T14:19:07.655Z,99154.31
2022-12-31T14:21:40.728Z,99158.44
2022-12-31T14:24:14.712Z,99150.84
2022-12-31T14:26:45.176Z,99162.91
2022-12-31T14:29:22.253Z,99182.41
2022-12-31T14:32:32.609Z,99175.66
2022-12-31T14:35:13.667Z,99203.19
2022-12-31T14:37:47.982Z,99196.25
2022-12-31T14:40:20.501Z,99187.88
2022-12-31T14:42:56.796Z,99179.59
2022-12-31T14:45:31.536Z,99205.22
2022-12-31T14:48:03.018Z,99189.59
2022-12-31T14:50:33.816Z,99189.66
2022-12-31T14:53:09.388Z,99200.44
2022-12-31T14:55:37.698Z,99199.69
2022-12-31T14:58:29.392Z,99198.34
2022-12-31T15:00:58.507Z,99198.28
2022-12-31T15:03:34.164Z,99194.69
2022-12-31T15:06:14.278Z,99204.00
2022-12-31T15:08:50.555Z,99197.25
2022-12-31T15:11:34.239Z,99198.22
2022-12-31T15:14:24.432Z,99212.41
2022-12-31T15:16:57.004Z,99202.59
2022-12-31T15:19:57.874Z,99195.75
2022-12-31T15:22:38.348Z,99214.06
2022-12-31T15:25:21.184Z,99198.81
2022-12-31T15:27:49.398Z,99210.03
2022-12-31T15:30:34.063Z,99205.78
2022-12-31T15:33:04.536Z,99182.50
2022-12-31T15:35:34.890Z,99201.19
2022-12-31T15:38:17.729Z,99188.44
2022-12-31T15:40:46.507Z,99189.72
2022-12-31T15:43:16.290Z,99186.75
2022-12-31T15:45:44.167Z,99210.72
2022-12-31T15:48:16.524Z,99212.09
2022-12-31T15:50:44.252Z,99216.13
2022-12-31T15:53:24.007Z,99212.81
2022-12-31T15:55:53.976Z,99217.91
2022-12-31T15:58:24.466Z,99210.72
2022-12-31T16:00:59.305Z,99218.75
2022-12-31T16:03:29.181Z,99242.31
2022-12-31T16:06:01.826Z,99227.81
2022-12-31T16:08:34.765Z,99231.38
2022-12-31T16:11:05.213Z,99233.63
2022-12-31T16:13:34.863Z,99234.34
2022-12-31T16:16:05.070Z,99240.69
2022-12-31T16:18:39.463Z,99236.28
2022-12-31T16:21:07.419Z,99236.38
2022-12-31T16:23:42.173Z,99238.88
2022-12-31T16:26:11.161Z,99239.72
2022-12-31T16:28:38.728Z,99245.97
2022-12-31T16:31:08.261Z,99229.31
2022-12-31T16:33:36.033Z,99238.53
2022-12-31T16:36:05.057Z,99231.16
2022-12-31T16:38:33.653Z,99233.31
2022-12-31T16:41:17.484Z,99235.47
2022-12-31T16:43:45.831Z,99230.13
2022-12-31T16:46:18.541Z,99238.78
2022-12-31T16:48:47.371Z,99244.69
2022-12-31T16:51:19.528Z,99246.31
2022-12-31T16:53:47.666Z,99243.72
2022-12-31T16:56:24.835Z,99244.63
2022-12-31T16:58:56.965Z,99232.91
2022-12-31T17:01:26.900Z,99239.66
2022-12-31T17:03:56.481Z,99224.41
2022-12-31T17:06:24.150Z,99219.75
2022-12-31T17:09:06.075Z,99226.75
2022-12-31T17:11:39.073Z,99230.91
2022-12-31T17:14:14.490Z,99223.56
2022-12-31T17:16:59.548Z,99224.91
2022-12-31T17:19:36.521Z,99231.91
2022-12-31T17:22:04.602Z,99235.81
2022-12-31T17:24:32.340Z,99221.41
2022-12-31T17:27:06.840Z,99221.88
2022-12-31T17:29:34.475Z,99221.81
2022-12-31T17:32:04.543Z,99203.13
2022-12-31T17:34:34.712Z,99223.72
2022-12-31T17:37:17.710Z,99214.78
2022-12-31T17:39:50.660Z,99195.84
2022-12-31T17:42:30.224Z,99214.44
2022-12-31T17:45:00.761Z,99207.22
2022-12-31T17:47:34.682Z,99185.53
2022-12-31T17:50:10.441Z,99198.50
2022-12-31T17:52:37.930Z,99191.38
2022-12-31T17:55:06.244Z,99192.78
2022-12-31T17:57:36.094Z,99188.84
2022-12-31T18:00:05.932Z,99203.41
2022-12-31T18:02:40.048Z,99189.34
2022-12-31T18:05:14.785Z,99188.66
2022-12-31T18:07:42.197Z,99170.88
2022-12-31T18:10:09.848Z,99170.66
2022-12-31T18:12:38.654Z,99171.03
2022-12-31T18:15:07.281Z,99165.22
2022-12-31T18:17:35.573Z,99171.53
2022-12-31T18:20:05.103Z,99175.94
2022-12-31T18:22:33.414Z,99176.97
2022-12-31T18:25:00.866Z,99187.47
2022-12-31T18:27:31.350Z,99176.00
2022-12-31T18:30:06.463Z,99178.00
2022-12-31T18:32:36.073Z,99187.63
2022-12-31T18:35:04.005Z,99176.66
2022-12-31T18:37:37.594Z,99186.69
2022-12-31T18:40:05.952Z,99168.34
2022-12-31T18:42:33.521Z,99165.28
2022-12-31T18:45:02.439Z,99187.63
2022-12-31T18:47:35.803Z,99166.50
2022-12-31T18:50:05.840Z,99176.38
2022-12-31T18:52:33.424Z,99174.03
2022-12-31T18:55:00.957Z,99178.78
2022-12-31T18:57:30.535Z,99177.97
2022-12-31T18:59:58.580Z,99161.66
2022-12-31T19:02:27.501Z,99167.06
2022-12-31T19:04:55.009Z,99182.53
2022-12-31T19:07:22.463Z,99178.63
2022-12-31T19:09:54.656Z,99174.16
2022-12-31T19:12:24.437Z,99201.31
2022-12-31T19:14:51.890Z,99177.06
2022-12-31T19:17:21.362Z,99199.59
2022-12-31T19:19:50.229Z,99196.28
2022-12-31T19:22:17.736Z,99198.28
2022-12-31T19:24:45.224Z,99192.72
2022-12-31T19:27:16.913Z,99193.97
2022-12-31T19:29:44.381Z,99186.09
2022-12-31T19:32:11.993Z,99178.25
2022-12-31T19:34:39.495Z,99172.03
2022-12-31T19:37:08.307Z,99176.91
2022-12-31T19:39:35.783Z,99190.16
2022-12-31T19:42:03.207Z,99193.81
2022-12-31T19:44:30.668Z,99181.09
2022-12-31T19:46:58.192Z,99182.06
2022-12-31T19:49:25.714Z,99202.22
2022-12-31T19:51:53.155Z,99209.38
2022-12-31T19:54:22.720Z,99194.25
2022-12-31T19:56:50.199Z,99196.94
2022-12-31T19:59:17.679Z,99194.63
2022-12-31T20:01:45.205Z,99195.16
2022-12-31T20:04:12.806Z,99201.47
2022-12-31T20:06:40.216Z,99197.63
2022-12-31T20:09:07.905Z,99191.00
2022-12-31T20:11:36.691Z,99205.28
2022-12-31T20:14:04.154Z,99213.09
2022-12-31T20:16:33.625Z,99215.47
2022-12-31T20:19:01.125Z,99227.38
2022-12-31T20:21:30.014Z,99227.09
2022-12-31T20:23:58.417Z,99225.31
2022-12-31T20:26:26.387Z,99220.16
2022-12-31T20:28:55.384Z,99225.91
2022-12-31T20:31:25.587Z,99225.22
2022-12-31T20:33:54.016Z,99225.06
2022-12-31T20:36:21.552Z,99225.00
2022-12-31T20:38:49.355Z,99222.84
2022-12-31T20:41:18.430Z,99240.31
2022-12-31T20:43:46.270Z,99245.38
2022-12-31T20:46:17.922Z,99247.09
2022-12-31T20:48:46.269Z,99249.25
2022-12-31T20:51:14.923Z,99239.88
2022-12-31T20:53:46.769Z,99242.34
2022-12-31T20:56:14.464Z,99253.94
2022-12-31T20:58:41.985Z,99262.03
2022-12-31T21:01:10.792Z,99259.25
2022-12-31T21:06:29.869Z,99259.84
2022-12-31T21:08:58.957Z,99251.66
2022-12-31T21:11:44.243Z,99255.28
2022-12-31T21:14:11.758Z,99260.28
2022-12-31T21:16:39.252Z,99269.72
2022-12-31T21:19:08.189Z,99255.38
2022-12-31T21:21:35.665Z,99283.50
2022-12-31T21:24:03.348Z,99258.53
2022-12-31T21:26:31.383Z,99263.66
2022-12-31T21:28:59.220Z,99268.91
2022-12-31T21:31:26.752Z,99286.13
2022-12-31T21:33:54.353Z,99269.28
2022-12-31T21:36:23.170Z,99274.34
2022-12-31T21:38:50.658Z,99280.91
2022-12-31T21:41:35.678Z,99287.75
2022-12-31T21:44:03.456Z,99268.53
2022-12-31T21:46:31.403Z,99264.50
2022-12-31T21:49:00.463Z,99274.28
2022-12-31T21:51:29.964Z,99281.94
2022-12-31T21:53:57.833Z,99279.09
2022-12-31T21:56:24.452Z,99285.78
2022-12-31T21:59:08.665Z,99295.84
2022-12-31T22:01:53.916Z,99285.34
2022-12-31T22:04:59.913Z,99285.81
2022-12-31T22:07:10.494Z,99292.50
2022-12-31T22:09:37.993Z,99281.94
2022-12-31T22:12:06.177Z,99283.78
2022-12-31T22:14:33.666Z,99295.72
2022-12-31T22:17:01.113Z,99294.22
2022-12-31T22:19:28.605Z,99296.31
2022-12-31T22:21:56.053Z,99299.53
2022-12-31T22:24:24.820Z,99306.94
2022-12-31T22:26:55.400Z,99296.91
2022-12-31T22:29:23.515Z,99312.81
2022-12-31T22:31:51.001Z,99321.31
2022-12-31T22:34:18.723Z,99309.28
2022-12-31T22:36:46.239Z,99312.63
2022-12-31T22:39:43.847Z,99326.22
2022-12-31T22:42:04.679Z,99319.16
2022-12-31T22:44:32.231Z,99331.88
2022-12-31T22:46:59.780Z,99329.09
2022-12-31T22:49:27.473Z,99333.72
2022-12-31T22:51:59.717Z,99335.09
2022-12-31T22:54:29.330Z,99349.94
2022-12-31T22:56:56.859Z,99353.91
2022-12-31T22:59:25.758Z,99339.69
2022-12-31T23:01:53.350Z,99368.78
2022-12-31T23:04:20.975Z,99352.13
2022-12-31T23:06:48.487Z,99359.34
2022-12-31T23:09:35.119Z,99368.88
2022-12-31T23:12:03.191Z,99370.38
2022-12-31T23:14:49.806Z,99364.69
2022-12-31T23:17:38.454Z,99357.25
2022-12-31T23:20:24.723Z,99354.22
2022-12-31T23:23:08.813Z,99369.41
2022-12-31T23:25:37.773Z,99362.78
2022-12-31T23:28:06.134Z,99354.22
2022-12-31T23:30:35.076Z,99366.81
2022-12-31T23:33:02.546Z,99362.09
2022-12-31T23:35:30.041Z,99373.72
2022-12-31T23:37:57.622Z,99367.63
2022-12-31T23:40:33.996Z,99378.50
2022-12-31T23:43:03.039Z,99365.16
2022-12-31T23:45:33.321Z,99365.66
2022-12-31T23:48:02.416Z,99384.06
2022-12-31T23:50:30.064Z,99378.34
2022-12-31T23:52:57.710Z,99363.75
2022-12-31T23:55:25.256Z,99367.97
2022-12-31T23:57:52.786Z,99364.72
